Sheikhupura Weather



Sheikhupura's Current Weather

Temprature 21o smoke

smoke

Rain: 0 %

Min Temprature21o
Max Temprature21o
Humidity73
Wind Speed1.98 m/h
Sun Rise05:29:15
Sun Set18:36:05
Current Time: 21-Apr-2019 06:10:24
Lat/Lon: 31.71, 73.99




Sheikhupura's Geo Location



Sheikhupura's Weather Forecast

Time Overall Temp Min Temp Max Temp Humidity Wind Speed Rain
21-Apr-2019 (Sun)
08:00:00 clear sky 26.290 26.290 28.709 36 2.19 m/h 0 %
11:00:00 clear sky 33.130 33.130 34.950 23 0.95 m/h 0 %
14:00:00 clear sky 35.940 35.940 37.150 19 1.13 m/h 0 %
17:00:00 clear sky 35.240 35.240 35.850 19 1.9 m/h 0 %
20:00:00 clear sky 30.650 30.650 30.650 29 2.7 m/h 0 %
23:00:00 clear sky 28.620 28.620 28.620 32 2.24 m/h 0 %
22-Apr-2019 (Mon)
02:00:00 clear sky 26.570 26.570 26.570 35 2.38 m/h 0 %
05:00:00 clear sky 25.134 25.134 25.134 37 2.31 m/h 0 %
08:00:00 clear sky 29.646 29.646 29.646 30 2.1 m/h 0 %
11:00:00 clear sky 36.120 36.120 36.120 19 1.42 m/h 0 %
14:00:00 clear sky 38.115 38.115 38.115 16 3.05 m/h 0 %
17:00:00 clear sky 38.031 38.031 38.031 16 2.82 m/h 0 %
20:00:00 clear sky 31.650 31.650 31.650 26 2.79 m/h 0 %
23:00:00 clear sky 29.196 29.196 29.196 28 2.85 m/h 0 %
23-Apr-2019 (Tue)
02:00:00 clear sky 27.577 27.577 27.577 31 3.2 m/h 0 %
05:00:00 clear sky 26.016 26.016 26.016 33 2.89 m/h 0 %
08:00:00 scattered clouds 30.577 30.577 30.577 26 1.11 m/h 0 %
11:00:00 broken clouds 37.450 37.450 37.450 17 1.76 m/h 0 %
14:00:00 clear sky 40.150 40.150 40.150 13 3.04 m/h 0 %
17:00:00 clear sky 39.750 39.750 39.750 13 2.52 m/h 0 %
20:00:00 clear sky 32.728 32.728 32.728 21 3.68 m/h 0 %
23:00:00 clear sky 30.550 30.550 30.550 22 3.27 m/h 0 %
24-Apr-2019 (Wed)
02:00:00 overcast clouds 28.882 28.882 28.882 24 2.91 m/h 0 %
05:00:00 light rain 27.194 27.194 27.194 28 3.16 m/h 38 %
08:00:00 overcast clouds 31.550 31.550 31.550 20 3.92 m/h 0 %
11:00:00 broken clouds 40.109 40.109 40.109 11 4.93 m/h 0 %
14:00:00 few clouds 43.250 43.250 43.250 8 5.5 m/h 0 %
17:00:00 broken clouds 39.850 39.850 39.850 11 2.42 m/h 0 %
20:00:00 overcast clouds 32.555 32.555 32.555 25 8.43 m/h 0 %
23:00:00 overcast clouds 30.045 30.045 30.045 29 6.24 m/h 0 %
25-Apr-2019 (Thu)
02:00:00 broken clouds 28.350 28.350 28.350 36 7.24 m/h 0 %
05:00:00 overcast clouds 28.072 28.072 28.072 31 3.44 m/h 0 %
08:00:00 overcast clouds 30.620 30.620 30.620 28 4.14 m/h 0 %
11:00:00 overcast clouds 37.090 37.090 37.090 17 2.79 m/h 0 %
14:00:00 few clouds 39.050 39.050 39.050 14 2.96 m/h 0 %
17:00:00 clear sky 38.711 38.711 38.711 14 2.31 m/h 0 %
20:00:00 clear sky 33.125 33.125 33.125 18 1.68 m/h 0 %
23:00:00 broken clouds 29.543 29.543 29.543 19 2.83 m/h 0 %
26-Apr-2019 (Fri)
02:00:00 overcast clouds 27.632 27.632 27.632 19 2.7 m/h 0 %
05:00:00 light rain 25.566 25.566 25.566 26 3.54 m/h 106 %

Famous Cities (60)